createdAt,value
2022-09-20T00:02:48.350Z,1.30
2022-09-20T00:05:51.194Z,1.00
2022-09-20T00:08:54.764Z,0.80
2022-09-20T00:11:59.564Z,0.93
2022-09-20T00:15:04.769Z,0.90
2022-09-20T00:18:07.476Z,0.80
2022-09-20T00:21:16.912Z,0.70
2022-09-20T00:24:20.322Z,0.85
2022-09-20T00:27:24.384Z,0.90
2022-09-20T00:30:27.250Z,0.90
2022-09-20T00:33:50.250Z,0.90
2022-09-20T00:36:52.112Z,0.70
2022-09-20T00:39:54.972Z,1.00
2022-09-20T00:42:59.044Z,0.90
2022-09-20T00:46:03.960Z,0.80
2022-09-20T00:49:13.001Z,1.00
2022-09-20T00:52:17.109Z,0.90
2022-09-20T00:55:21.423Z,0.90
2022-09-20T00:58:28.613Z,0.77
2022-09-20T01:01:31.986Z,0.90
2022-09-20T01:04:39.088Z,0.90
2022-09-20T01:07:43.762Z,0.80
2022-09-20T01:10:47.291Z,0.80
2022-09-20T01:13:54.454Z,0.70
2022-09-20T01:17:03.668Z,0.73
2022-09-20T01:20:16.788Z,1.00
2022-09-20T01:23:45.353Z,0.70
2022-09-20T01:27:07.857Z,0.80
2022-09-20T01:30:17.300Z,0.80
2022-09-20T01:33:29.607Z,0.80
2022-09-20T01:36:38.989Z,0.80
2022-09-20T01:39:53.761Z,0.90
2022-09-20T01:43:04.268Z,0.80
2022-09-20T01:46:21.432Z,0.68
2022-09-20T01:49:31.752Z,1.00
2022-09-20T01:53:08.942Z,0.80
2022-09-20T01:56:42.255Z,0.80
2022-09-20T02:00:08.141Z,0.80
2022-09-20T02:03:37.205Z,0.90
2022-09-20T02:07:08.805Z,0.70
2022-09-20T02:10:33.013Z,0.80
2022-09-20T02:13:54.990Z,0.60
2022-09-20T02:17:04.501Z,0.70
2022-09-20T02:20:21.153Z,0.70
2022-09-20T02:23:41.964Z,0.80
2022-09-20T02:26:58.525Z,0.93
2022-09-20T02:30:25.135Z,0.90
2022-09-20T02:33:52.639Z,0.68
2022-09-20T02:37:16.607Z,0.73
2022-09-20T02:40:31.417Z,0.70
2022-09-20T02:43:41.955Z,0.70
2022-09-20T02:46:54.047Z,0.70
2022-09-20T02:50:12.715Z,0.70
2022-09-20T02:53:38.178Z,0.73
2022-09-20T02:56:48.835Z,0.70
2022-09-20T02:59:57.950Z,0.60
2022-09-20T03:03:10.068Z,0.80
2022-09-20T03:06:22.532Z,0.63
2022-09-20T03:09:36.042Z,0.70
2022-09-20T03:12:56.351Z,0.70
2022-09-20T03:16:06.533Z,0.80
2022-09-20T03:19:23.325Z,0.70
2022-09-20T03:22:37.157Z,0.73
2022-09-20T03:25:56.044Z,0.75
2022-09-20T03:29:04.011Z,0.90
2022-09-20T03:32:23.723Z,0.75
2022-09-20T03:35:42.439Z,0.80
2022-09-20T03:39:12.159Z,0.67
2022-09-20T03:42:20.844Z,0.70
2022-09-20T03:45:59.550Z,0.60
2022-09-20T03:49:47.637Z,0.80
2022-09-20T03:53:08.069Z,1.20
2022-09-20T03:56:27.033Z,0.90
2022-09-20T03:59:54.177Z,1.08
2022-09-20T04:03:04.807Z,0.85
2022-09-20T04:06:49.047Z,0.90
2022-09-20T04:10:17.366Z,0.70
2022-09-20T04:13:35.677Z,0.70
2022-09-20T04:16:47.349Z,0.77
2022-09-20T04:19:54.901Z,1.00
2022-09-20T04:23:02.533Z,0.98
2022-09-20T04:26:05.675Z,0.90
2022-09-20T04:29:29.051Z,0.87
2022-09-20T04:32:41.258Z,0.90
2022-09-20T04:36:06.765Z,1.10
2022-09-20T04:39:18.971Z,0.85
2022-09-20T04:42:51.978Z,1.23
2022-09-20T04:46:22.825Z,0.90
2022-09-20T04:49:57.914Z,0.90
2022-09-20T04:53:30.951Z,1.00
2022-09-20T04:56:52.205Z,1.20
2022-09-20T05:00:05.794Z,1.00
2022-09-20T05:03:33.104Z,1.20
2022-09-20T05:07:01.723Z,1.08
2022-09-20T05:10:27.154Z,1.05
2022-09-20T05:13:43.283Z,1.20
2022-09-20T05:17:02.789Z,1.00
2022-09-20T05:20:27.798Z,1.20
2022-09-20T05:23:58.283Z,1.05
2022-09-20T05:27:19.744Z,1.00
2022-09-20T05:30:35.190Z,1.02
2022-09-20T05:33:49.092Z,1.10
2022-09-20T05:37:00.717Z,1.07
2022-09-20T05:40:16.585Z,1.10
2022-09-20T05:43:28.867Z,1.08
2022-09-20T05:46:37.762Z,1.00
2022-09-20T05:49:53.070Z,1.30
2022-09-20T05:53:00.515Z,1.20
2022-09-20T05:56:15.773Z,1.10
2022-09-20T05:59:31.964Z,1.50
2022-09-20T06:02:49.206Z,1.20
2022-09-20T06:05:59.468Z,1.10
2022-09-20T06:09:19.853Z,1.43
2022-09-20T06:13:19.925Z,1.05
2022-09-20T06:16:33.731Z,0.90
2022-09-20T06:19:42.452Z,1.08
2022-09-20T06:22:47.599Z,0.90
2022-09-20T06:25:57.442Z,0.97
2022-09-20T06:29:04.400Z,1.02
2022-09-20T06:32:08.299Z,1.00
2022-09-20T06:35:11.291Z,1.05
2022-09-20T06:38:51.252Z,1.30
2022-09-20T06:41:54.727Z,0.93
2022-09-20T06:44:59.103Z,1.58
2022-09-20T06:48:03.411Z,1.50
2022-09-20T06:51:06.301Z,1.30
2022-09-20T06:54:15.435Z,1.30
2022-09-20T06:57:21.250Z,1.40
2022-09-20T07:00:24.353Z,1.42
2022-09-20T07:03:28.437Z,1.58
2022-09-20T07:06:31.055Z,1.20
2022-09-20T07:09:33.680Z,1.57
2022-09-20T07:12:36.569Z,1.60
2022-09-20T07:15:39.338Z,1.50
2022-09-20T07:18:44.635Z,1.67
2022-09-20T07:21:47.352Z,1.50
2022-09-20T07:24:50.087Z,1.70
2022-09-20T07:27:52.732Z,1.70
2022-09-20T07:30:55.327Z,1.30
2022-09-20T07:33:59.352Z,1.50
2022-09-20T07:37:02.389Z,1.30
2022-09-20T07:40:06.497Z,1.33
2022-09-20T07:43:09.235Z,1.30
2022-09-20T07:46:13.664Z,1.38
2022-09-20T07:49:17.871Z,1.55
2022-09-20T07:52:20.518Z,1.20
2022-09-20T07:55:23.234Z,1.30
2022-09-20T07:58:26.361Z,1.20
2022-09-20T08:01:29.496Z,1.00
2022-09-20T08:04:33.576Z,1.48
2022-09-20T08:07:36.204Z,1.30
2022-09-20T08:10:41.408Z,1.07
2022-09-20T08:17:12.414Z,1.13
2022-09-20T08:20:16.938Z,0.97
2022-09-20T08:23:23.685Z,1.20
2022-09-20T08:26:30.418Z,1.55
2022-09-20T08:29:33.166Z,1.55
2022-09-20T08:32:35.719Z,1.33
2022-09-20T08:35:39.681Z,1.30
2022-09-20T08:42:14.413Z,1.27
2022-09-20T08:45:33.703Z,1.13
2022-09-20T08:48:37.367Z,1.30
2022-09-20T08:51:48.508Z,1.40
2022-09-20T08:54:51.386Z,1.70
2022-09-20T08:57:56.639Z,1.55
2022-09-20T09:01:00.172Z,1.60
2022-09-20T09:04:13.817Z,1.83
2022-09-20T09:07:21.711Z,2.17
2022-09-20T09:10:24.333Z,1.80
2022-09-20T09:13:33.398Z,1.75
2022-09-20T09:16:36.428Z,1.77
2022-09-20T09:19:48.249Z,1.70
2022-09-20T09:23:02.723Z,2.00
2022-09-20T09:26:06.708Z,1.80
2022-09-20T09:29:15.911Z,1.60
2022-09-20T09:32:24.055Z,1.90
2022-09-20T09:35:30.630Z,2.85
2022-09-20T09:38:37.612Z,2.00
2022-09-20T09:41:40.646Z,2.03
2022-09-20T09:44:43.357Z,2.00
2022-09-20T09:47:46.191Z,2.00
2022-09-20T09:50:48.871Z,1.67
2022-09-20T09:53:55.199Z,2.07
2022-09-20T09:57:12.069Z,1.65
2022-09-20T10:00:21.962Z,1.80
2022-09-20T10:03:39.446Z,1.50
2022-09-20T10:06:52.189Z,1.85
2022-09-20T10:10:09.065Z,1.97
2022-09-20T10:13:20.931Z,1.90
2022-09-20T10:16:35.910Z,2.25
2022-09-20T10:19:49.757Z,2.10
2022-09-20T10:23:34.443Z,1.90
2022-09-20T10:26:39.991Z,1.80
2022-09-20T10:29:54.727Z,1.80
2022-09-20T10:33:07.351Z,1.80
2022-09-20T10:36:25.295Z,1.88
2022-09-20T10:39:32.802Z,1.90
2022-09-20T10:43:04.288Z,2.00
2022-09-20T10:46:31.795Z,1.90
2022-09-20T10:49:37.639Z,1.40
2022-09-20T10:53:06.541Z,1.80
2022-09-20T10:56:24.017Z,1.42
2022-09-20T10:59:38.708Z,1.40
2022-09-20T11:02:53.855Z,1.60
2022-09-20T11:06:09.288Z,1.48
2022-09-20T11:09:18.759Z,1.83
2022-09-20T11:12:26.924Z,1.10
2022-09-20T11:15:36.392Z,1.10
2022-09-20T11:18:44.975Z,1.05
2022-09-20T11:21:54.387Z,1.30
2022-09-20T11:25:04.016Z,1.73
2022-09-20T11:28:13.785Z,1.40
2022-09-20T11:31:24.855Z,1.60
2022-09-20T11:34:31.127Z,1.88
2022-09-20T11:37:37.391Z,2.00
2022-09-20T11:40:46.402Z,1.80
2022-09-20T11:43:50.679Z,1.80
2022-09-20T11:47:01.237Z,2.10
2022-09-20T11:50:32.987Z,1.98
2022-09-20T11:53:48.697Z,2.00
2022-09-20T11:56:53.005Z,1.95
2022-09-20T12:00:01.163Z,2.40
2022-09-20T12:03:09.756Z,2.10
2022-09-20T12:06:27.478Z,1.50
2022-09-20T12:09:32.841Z,1.80
2022-09-20T12:12:41.651Z,1.38
2022-09-20T12:15:44.394Z,1.13
2022-09-20T12:19:05.404Z,0.93
2022-09-20T12:22:29.367Z,1.08
2022-09-20T12:25:40.614Z,1.00
2022-09-20T12:28:45.321Z,1.30
2022-09-20T12:31:49.137Z,1.33
2022-09-20T12:34:53.539Z,1.47
2022-09-20T12:37:56.585Z,0.98
2022-09-20T12:41:01.574Z,0.90
2022-09-20T12:44:24.196Z,0.43
2022-09-20T12:47:30.132Z,0.40
2022-09-20T12:50:51.664Z,0.57
2022-09-20T12:54:07.564Z,0.32
2022-09-20T12:57:19.135Z,0.60
2022-09-20T13:00:34.477Z,0.40
2022-09-20T13:03:39.459Z,0.45
2022-09-20T13:06:45.128Z,0.40
2022-09-20T13:09:49.281Z,0.63
2022-09-20T13:12:57.085Z,0.65
2022-09-20T13:16:01.290Z,0.40
2022-09-20T13:19:08.413Z,0.70
2022-09-20T13:22:17.336Z,0.60
2022-09-20T13:25:22.029Z,0.50
2022-09-20T13:28:35.130Z,0.65
2022-09-20T13:31:38.184Z,0.60
2022-09-20T13:34:41.042Z,0.65
2022-09-20T13:37:54.112Z,0.50
2022-09-20T13:41:04.594Z,0.65
2022-09-20T13:44:07.343Z,0.60
2022-09-20T13:47:27.362Z,0.60
2022-09-20T13:50:34.715Z,0.50
2022-09-20T13:53:42.336Z,0.60
2022-09-20T13:56:45.571Z,0.60
2022-09-20T13:59:49.775Z,0.70
2022-09-20T14:02:54.702Z,0.60
2022-09-20T14:06:00.545Z,0.60
2022-09-20T14:09:11.069Z,0.60
2022-09-20T14:12:14.862Z,0.68
2022-09-20T14:15:17.832Z,0.70
2022-09-20T14:18:22.404Z,0.50
2022-09-20T14:21:27.241Z,0.45
2022-09-20T14:24:35.287Z,0.50
2022-09-20T14:27:38.072Z,0.40
2022-09-20T14:30:40.891Z,0.40
2022-09-20T14:33:49.807Z,0.63
2022-09-20T14:37:06.470Z,0.55
2022-09-20T14:40:22.786Z,0.60
2022-09-20T14:43:31.347Z,0.55
2022-09-20T14:46:36.038Z,0.40
2022-09-20T14:49:41.907Z,0.30
2022-09-20T14:52:45.315Z,0.55
2022-09-20T14:56:01.632Z,0.87
2022-09-20T14:59:26.108Z,0.80
2022-09-20T15:02:28.846Z,1.67
2022-09-20T15:05:31.549Z,1.40
2022-09-20T15:08:35.594Z,1.00
2022-09-20T15:11:40.689Z,0.50
2022-09-20T15:14:44.975Z,0.50
2022-09-20T15:17:48.745Z,0.32
2022-09-20T15:20:52.214Z,0.60
2022-09-20T15:23:54.982Z,0.40
2022-09-20T15:26:58.885Z,0.40
2022-09-20T15:30:01.614Z,0.50
2022-09-20T15:33:04.520Z,0.40
2022-09-20T15:36:08.051Z,0.60
2022-09-20T15:39:10.597Z,0.50
2022-09-20T15:42:14.958Z,0.60
2022-09-20T15:45:18.264Z,0.60
2022-09-20T15:48:22.388Z,0.55
2022-09-20T15:51:25.111Z,0.40
2022-09-20T15:54:27.726Z,0.45
2022-09-20T15:57:32.568Z,0.90
2022-09-20T16:00:35.731Z,1.63
2022-09-20T16:03:38.696Z,1.20
2022-09-20T16:06:44.061Z,0.90
2022-09-20T16:09:46.634Z,1.10
2022-09-20T16:12:50.720Z,1.00
2022-09-20T16:15:57.333Z,1.10
2022-09-20T16:19:19.639Z,1.20
2022-09-20T16:22:22.321Z,0.80
2022-09-20T16:25:25.198Z,0.93
2022-09-20T16:28:29.161Z,0.47
2022-09-20T16:31:34.753Z,0.70
2022-09-20T16:34:38.553Z,0.73
2022-09-20T16:37:41.173Z,0.77
2022-09-20T16:40:44.014Z,1.40
2022-09-20T16:43:52.144Z,0.70
2022-09-20T16:46:54.737Z,0.80
2022-09-20T16:49:57.434Z,0.80
2022-09-20T16:53:00.148Z,0.70
2022-09-20T16:56:07.621Z,0.70
2022-09-20T16:59:12.549Z,0.90
2022-09-20T17:02:17.333Z,0.60
2022-09-20T17:05:19.898Z,0.60
2022-09-20T17:08:23.315Z,0.80
2022-09-20T17:11:27.791Z,0.80
2022-09-20T17:14:31.839Z,0.80
2022-09-20T17:17:34.681Z,1.30
2022-09-20T17:20:39.099Z,0.90
2022-09-20T17:23:45.557Z,1.00
2022-09-20T17:26:52.298Z,0.80
2022-09-20T17:29:56.446Z,1.00
2022-09-20T17:32:59.284Z,1.40
2022-09-20T17:36:03.124Z,1.20
2022-09-20T17:39:06.843Z,1.30
2022-09-20T17:42:09.383Z,1.90
2022-09-20T17:45:13.660Z,2.70
2022-09-20T17:48:16.235Z,2.88
2022-09-20T17:51:20.816Z,2.90
2022-09-20T17:54:24.677Z,2.83
2022-09-20T17:57:27.370Z,2.30
2022-09-20T18:00:31.340Z,2.10
2022-09-20T18:03:38.163Z,2.63
2022-09-20T18:06:43.253Z,2.53
2022-09-20T18:09:45.807Z,3.00
2022-09-20T18:12:48.505Z,3.10
2022-09-20T18:15:52.453Z,4.50
2022-09-20T18:18:55.531Z,4.85
2022-09-20T18:21:58.101Z,5.85
2022-09-20T18:25:00.691Z,6.18
2022-09-20T18:28:03.260Z,5.60
2022-09-20T18:31:08.711Z,4.47
2022-09-20T18:34:18.130Z,3.78
2022-09-20T18:37:20.843Z,3.90
2022-09-20T18:40:23.592Z,4.60
2022-09-20T18:43:26.866Z,4.67
2022-09-20T18:46:31.645Z,4.50
2022-09-20T18:49:34.634Z,4.10
2022-09-20T18:52:38.742Z,3.58
2022-09-20T18:55:43.989Z,3.47
2022-09-20T18:58:47.392Z,3.70
2022-09-20T19:02:24.722Z,5.60
2022-09-20T19:05:35.229Z,5.90
2022-09-20T19:08:46.567Z,5.20
2022-09-20T19:12:00.878Z,4.55
2022-09-20T19:15:21.404Z,4.53
2022-09-20T19:18:38.201Z,4.20
2022-09-20T19:21:47.483Z,3.60
2022-09-20T19:25:04.971Z,4.38
2022-09-20T19:28:10.855Z,4.30
2022-09-20T19:31:21.118Z,4.33
2022-09-20T19:34:27.715Z,4.30
2022-09-20T19:37:38.030Z,4.57
2022-09-20T19:40:50.201Z,5.00
2022-09-20T19:44:18.226Z,4.13
2022-09-20T19:47:30.778Z,4.07
2022-09-20T19:50:41.143Z,3.93
2022-09-20T19:53:44.369Z,4.82
2022-09-20T19:56:55.158Z,4.60
2022-09-20T19:59:58.344Z,4.53
2022-09-20T20:03:01.590Z,4.37
2022-09-20T20:06:16.222Z,3.90
2022-09-20T20:09:28.731Z,4.28
2022-09-20T20:12:36.825Z,4.47
2022-09-20T20:15:46.255Z,4.78
2022-09-20T20:19:05.907Z,4.77
2022-09-20T20:22:23.825Z,4.30
2022-09-20T20:25:41.491Z,4.40
2022-09-20T20:28:44.239Z,4.30
2022-09-20T20:31:47.003Z,4.30
2022-09-20T20:34:50.430Z,4.70
2022-09-20T20:37:54.565Z,5.00
2022-09-20T20:41:04.429Z,5.30
2022-09-20T20:44:08.396Z,5.55
2022-09-20T20:47:11.455Z,5.40
2022-09-20T20:50:14.433Z,5.30
2022-09-20T20:53:18.644Z,5.00
2022-09-20T20:56:22.871Z,5.03
2022-09-20T20:59:25.597Z,6.22
2022-09-20T21:02:29.263Z,5.35
2022-09-20T21:05:32.401Z,5.40
2022-09-20T21:08:38.228Z,5.10
2022-09-20T21:11:43.219Z,5.07
2022-09-20T21:14:45.908Z,6.13
2022-09-20T21:17:51.980Z,5.00
2022-09-20T21:20:54.654Z,5.35
2022-09-20T21:24:00.444Z,5.50
2022-09-20T21:27:05.063Z,6.25
2022-09-20T21:30:09.412Z,6.53
2022-09-20T21:33:11.973Z,6.80
2022-09-20T21:36:16.798Z,6.40
2022-09-20T21:39:20.861Z,5.90
2022-09-20T21:42:25.424Z,5.15
2022-09-20T21:45:29.709Z,4.75
2022-09-20T21:48:32.314Z,4.38
2022-09-20T21:51:35.945Z,4.80
2022-09-20T21:54:39.948Z,4.73
2022-09-20T21:57:42.505Z,4.88
2022-09-20T22:00:56.397Z,5.80
2022-09-20T22:04:01.028Z,5.32
2022-09-20T22:07:04.619Z,5.68
2022-09-20T22:10:09.779Z,5.30
2022-09-20T22:13:12.343Z,4.97
2022-09-20T22:16:16.856Z,4.95
2022-09-20T22:19:20.428Z,4.40
2022-09-20T22:22:23.025Z,4.68
2022-09-20T22:25:27.072Z,4.40
2022-09-20T22:28:29.672Z,3.63
2022-09-20T22:31:33.943Z,4.10
2022-09-20T22:34:36.675Z,3.92
2022-09-20T22:37:39.424Z,3.65
2022-09-20T22:40:53.373Z,3.40
2022-09-20T22:43:56.520Z,3.70
2022-09-20T22:46:59.237Z,3.60
2022-09-20T22:50:01.977Z,3.70
2022-09-20T22:53:04.572Z,3.80
2022-09-20T22:56:11.156Z,4.50
2022-09-20T22:59:15.239Z,4.63
2022-09-20T23:02:18.061Z,4.72
2022-09-20T23:05:20.781Z,4.32
2022-09-20T23:08:25.071Z,4.30
2022-09-20T23:11:29.731Z,4.50
2022-09-20T23:14:32.495Z,4.07
2022-09-20T23:17:35.218Z,4.28
2022-09-20T23:20:38.282Z,4.38
2022-09-20T23:23:43.184Z,4.70
2022-09-20T23:26:47.740Z,4.53
2022-09-20T23:29:50.317Z,3.85
2022-09-20T23:32:54.924Z,5.10
2022-09-20T23:35:58.317Z,4.60
2022-09-20T23:39:01.285Z,4.38
2022-09-20T23:42:05.875Z,4.13
2022-09-20T23:45:10.134Z,4.07
2022-09-20T23:48:12.893Z,4.00
2022-09-20T23:51:17.589Z,4.10
2022-09-20T23:54:20.139Z,3.90
2022-09-20T23:57:24.181Z,4.00
